M4 — V7YF6 — position and weather

sailwx.info

Track history (hours):
 
Tides and Currents Weather Stations Pressure Air Temp Water Temp Dewpoint Dewpoint Depression Visibility Wind Speed Wind Dir Waves Ship Positions

M4

Last reported at 2014-Oct-20 04:11 UTC. Time now 2014-Oct-31 22:18 UTC.
Position N 26°51' W 080°02'.
Warning: this ship's position is 11 days out of date.

Length 42 m; draft 2.4 m.

Type: Pleasure craft. MMSI: 538708350.

Date/timePositionNaut miles runAvg speedWind from/ knotsBaromVisibWave heightAir tempDewpointWater temp
2014-Oct-20 04:11N 26°51' W 080°02'6 9.0
2014-Oct-20 03:33N 26°57' W 080°03'  
2014-Oct-16 18:28N 36°53' W 075°54'1010.3
2014-Oct-16 17:32N 36°58' W 076°05'1010.4
2014-Oct-16 16:33N 37°00' W 076°17'8 8.5
2014-Oct-16 15:33N 36°52' W 076°19'1 0.7
2014-Oct-16 13:20N 36°51' W 076°18'  
2014-Oct-13 22:13N 36°51' W 076°18'5 8.0
2014-Oct-13 21:32N 36°56' W 076°20'7 7.0
2014-Oct-13 20:34N 37°01' W 076°15'1110.3
2014-Oct-13 19:32N 36°58' W 076°02'1110.1
2014-Oct-13 18:30N 37°01' W 075°49'24810.3
2014-Oct-12 18:22N 40°16' W 072°34'2910.4
2014-Oct-12 15:33N 40°40' W 072°10'1010.4
2014-Oct-12 14:33N 40°48' W 072°02'1010.4
2014-Oct-12 13:33N 40°56' W 071°54'1010.5
2014-Oct-12 12:33N 41°04' W 071°45'1010.4
2014-Oct-12 11:33N 41°13' W 071°37'1010.0
2014-Oct-12 10:33N 41°21' W 071°29'1010.2
2014-Oct-12 09:33N 41°29' W 071°21'1 1.2
2014-Oct-12 08:31N 41°29' W 071°19'0 0.0
2014-Oct-12 07:34N 41°29' W 071°19'0 0.0
2014-Oct-12 06:33N 41°29' W 071°19'0 0.0
2014-Oct-12 05:32N 41°29' W 071°19'0 0.0
2014-Oct-12 04:31N 41°29' W 071°19'0 0.0
2014-Oct-12 03:31N 41°29' W 071°19'0 0.0
2014-Oct-12 02:31N 41°29' W 071°19'0 0.0
2014-Oct-12 01:22N 41°29' W 071°19'0 0.0
2014-Oct-12 00:19N 41°29' W 071°19'0 0.0
2014-Oct-11 23:31N 41°29' W 071°19'0 0.0
2014-Oct-11 22:24N 41°29' W 071°19'0 0.0
2014-Oct-11 21:32N 41°29' W 071°19'0 0.0
2014-Oct-11 18:16N 41°29' W 071°19'0 0.0
2014-Oct-11 11:27N 41°29' W 071°19'0 0.0
2014-Oct-11 10:30N 41°29' W 071°19'0 0.0
2014-Oct-11 09:27N 41°29' W 071°19'0 0.0
2014-Oct-11 08:29N 41°29' W 071°19'0 0.0
2014-Oct-11 07:32N 41°29' W 071°19'0 0.0
2014-Oct-11 06:32N 41°29' W 071°19'0 0.0
2014-Oct-11 02:25N 41°29' W 071°19'0 0.0
2014-Oct-11 01:33N 41°29' W 071°19'0 0.0
2014-Oct-11 00:31N 41°29' W 071°19'0 0.0
2014-Oct-10 23:32N 41°29' W 071°19'0 0.0
2014-Oct-10 22:24N 41°29' W 071°19'0 0.0
2014-Oct-10 21:32N 41°29' W 071°19'0 0.0
2014-Oct-10 20:13N 41°29' W 071°19'0 0.0
2014-Oct-10 19:22N 41°29' W 071°19'0 0.0
2014-Oct-10 16:16N 41°29' W 071°19'0 0.0
2014-Oct-10 15:33N 41°29' W 071°19'0 0.0
2014-Oct-10 14:31N 41°29' W 071°19'0 0.0
2014-Oct-10 13:31N 41°29' W 071°19'0 0.0
2014-Oct-10 12:31N 41°29' W 071°19'0 0.1
2014-Oct-10 11:25N 41°29' W 071°19'0 0.0
2014-Oct-10 10:13N 41°29' W 071°19'0 0.0
2014-Oct-10 09:31N 41°29' W 071°19'0 0.0
2014-Oct-10 08:31N 41°29' W 071°19'0 0.0
2014-Oct-10 07:31N 41°29' W 071°19'0 0.0
2014-Oct-10 06:31N 41°29' W 071°19'0 0.0
2014-Oct-10 05:28N 41°29' W 071°19'0 0.0
2014-Oct-10 04:31N 41°29' W 071°19'  
Track history (hours):
 
Tides and Currents Weather Stations Pressure Air Temp Water Temp Dewpoint Dewpoint Depression Visibility Wind Speed Wind Dir Waves Ship Positions

M4

Last reported at 2014-Oct-20 04:11 UTC. Time now 2014-Oct-31 22:18 UTC.
Position N 26°51' W 080°02'.
Warning: this ship's position is 11 days out of date.

Length 42 m; draft 2.4 m.

Type: Pleasure craft. MMSI: 538708350.

Date/timePositionNaut miles runAvg speedWind from/ knotsBaromVisibWave heightAir tempDewpointWater temp
2014-Oct-20 04:11N 26°51' W 080°02'6 9.0
2014-Oct-20 03:33N 26°57' W 080°03'  
2014-Oct-16 18:28N 36°53' W 075°54'1010.3
2014-Oct-16 17:32N 36°58' W 076°05'1010.4
2014-Oct-16 16:33N 37°00' W 076°17'8 8.5
2014-Oct-16 15:33N 36°52' W 076°19'1 0.7
2014-Oct-16 13:20N 36°51' W 076°18'  
2014-Oct-13 22:13N 36°51' W 076°18'5 8.0
2014-Oct-13 21:32N 36°56' W 076°20'7 7.0
2014-Oct-13 20:34N 37°01' W 076°15'1110.3
2014-Oct-13 19:32N 36°58' W 076°02'1110.1
2014-Oct-13 18:30N 37°01' W 075°49'24810.3
2014-Oct-12 18:22N 40°16' W 072°34'2910.4
2014-Oct-12 15:33N 40°40' W 072°10'1010.4
2014-Oct-12 14:33N 40°48' W 072°02'1010.4
2014-Oct-12 13:33N 40°56' W 071°54'1010.5
2014-Oct-12 12:33N 41°04' W 071°45'1010.4
2014-Oct-12 11:33N 41°13' W 071°37'1010.0
2014-Oct-12 10:33N 41°21' W 071°29'1010.2
2014-Oct-12 09:33N 41°29' W 071°21'1 1.2
2014-Oct-12 08:31N 41°29' W 071°19'0 0.0
2014-Oct-12 07:34N 41°29' W 071°19'0 0.0
2014-Oct-12 06:33N 41°29' W 071°19'0 0.0
2014-Oct-12 05:32N 41°29' W 071°19'0 0.0
2014-Oct-12 04:31N 41°29' W 071°19'0 0.0
2014-Oct-12 03:31N 41°29' W 071°19'0 0.0
2014-Oct-12 02:31N 41°29' W 071°19'0 0.0
2014-Oct-12 01:22N 41°29' W 071°19'0 0.0
2014-Oct-12 00:19N 41°29' W 071°19'0 0.0
2014-Oct-11 23:31N 41°29' W 071°19'0 0.0
2014-Oct-11 22:24N 41°29' W 071°19'0 0.0
2014-Oct-11 21:32N 41°29' W 071°19'0 0.0
2014-Oct-11 18:16N 41°29' W 071°19'0 0.0
2014-Oct-11 11:27N 41°29' W 071°19'0 0.0
2014-Oct-11 10:30N 41°29' W 071°19'0 0.0
2014-Oct-11 09:27N 41°29' W 071°19'0 0.0
2014-Oct-11 08:29N 41°29' W 071°19'0 0.0
2014-Oct-11 07:32N 41°29' W 071°19'0 0.0
2014-Oct-11 06:32N 41°29' W 071°19'0 0.0
2014-Oct-11 02:25N 41°29' W 071°19'0 0.0
2014-Oct-11 01:33N 41°29' W 071°19'0 0.0
2014-Oct-11 00:31N 41°29' W 071°19'0 0.0
2014-Oct-10 23:32N 41°29' W 071°19'0 0.0
2014-Oct-10 22:24N 41°29' W 071°19'0 0.0
2014-Oct-10 21:32N 41°29' W 071°19'0 0.0
2014-Oct-10 20:13N 41°29' W 071°19'0 0.0
2014-Oct-10 19:22N 41°29' W 071°19'0 0.0
2014-Oct-10 16:16N 41°29' W 071°19'0 0.0
2014-Oct-10 15:33N 41°29' W 071°19'0 0.0
2014-Oct-10 14:31N 41°29' W 071°19'0 0.0
2014-Oct-10 13:31N 41°29' W 071°19'0 0.0
2014-Oct-10 12:31N 41°29' W 071°19'0 0.1
2014-Oct-10 11:25N 41°29' W 071°19'0 0.0
2014-Oct-10 10:13N 41°29' W 071°19'0 0.0
2014-Oct-10 09:31N 41°29' W 071°19'0 0.0
2014-Oct-10 08:31N 41°29' W 071°19'0 0.0
2014-Oct-10 07:31N 41°29' W 071°19'0 0.0
2014-Oct-10 06:31N 41°29' W 071°19'0 0.0
2014-Oct-10 05:28N 41°29' W 071°19'0 0.0
2014-Oct-10 04:31N 41°29' W 071°19'  

Dump ship's entire track history